sensor_id;sensor_type;location;lat;lon;timestamp;temperature;humidity
10431;DHT22;5262;59.958;17.726;2023-04-09T00:01:09;-1.10;99.90
10431;DHT22;5262;59.958;17.726;2023-04-09T00:03:35;-1.10;99.90
10431;DHT22;5262;59.958;17.726;2023-04-09T00:06:02;-1.10;99.90
10431;DHT22;5262;59.958;17.726;2023-04-09T00:08:27;-1.10;99.90
10431;DHT22;5262;59.958;17.726;2023-04-09T00:10:53;-1.10;99.90
10431;DHT22;5262;59.958;17.726;2023-04-09T00:13:20;-1.10;99.90
10431;DHT22;5262;59.958;17.726;2023-04-09T00:15:46;-1.10;99.90
10431;DHT22;5262;59.958;17.726;2023-04-09T00:18:12;-1.10;99.90
10431;DHT22;5262;59.958;17.726;2023-04-09T00:20:38;-1.00;99.90
10431;DHT22;5262;59.958;17.726;2023-04-09T00:23:03;-1.00;99.90
10431;DHT22;5262;59.958;17.726;2023-04-09T00:25:29;-1.00;99.90
10431;DHT22;5262;59.958;17.726;2023-04-09T00:27:55;-0.90;99.90
10431;DHT22;5262;59.958;17.726;2023-04-09T00:30:21;-0.90;99.90
10431;DHT22;5262;59.958;17.726;2023-04-09T00:32:47;-0.90;99.90
10431;DHT22;5262;59.958;17.726;2023-04-09T00:35:13;-1.10;99.90
10431;DHT22;5262;59.958;17.726;2023-04-09T00:37:40;-1.10;99.90
10431;DHT22;5262;59.958;17.726;2023-04-09T00:40:06;-1.10;99.90
10431;DHT22;5262;59.958;17.726;2023-04-09T00:42:33;-1.20;99.90
10431;DHT22;5262;59.958;17.726;2023-04-09T00:45:00;-1.20;99.90
10431;DHT22;5262;59.958;17.726;2023-04-09T00:47:26;-1.30;99.90
10431;DHT22;5262;59.958;17.726;2023-04-09T00:49:53;-1.30;99.90
10431;DHT22;5262;59.958;17.726;2023-04-09T00:52:22;-1.30;99.90
10431;DHT22;5262;59.958;17.726;2023-04-09T00:54:49;-1.10;99.90
10431;DHT22;5262;59.958;17.726;2023-04-09T00:57:15;-1.30;99.90
10431;DHT22;5262;59.958;17.726;2023-04-09T00:59:42;-1.30;99.90
10431;DHT22;5262;59.958;17.726;2023-04-09T01:02:08;-1.40;99.90
10431;DHT22;5262;59.958;17.726;2023-04-09T01:04:35;-1.50;99.90
10431;DHT22;5262;59.958;17.726;2023-04-09T01:07:13;-1.50;99.90
10431;DHT22;5262;59.958;17.726;2023-04-09T01:09:56;-1.50;99.90
10431;DHT22;5262;59.958;17.726;2023-04-09T01:12:34;-1.60;99.90
10431;DHT22;5262;59.958;17.726;2023-04-09T01:15:08;-1.60;99.90
10431;DHT22;5262;59.958;17.726;2023-04-09T01:20:13;-1.70;99.90
10431;DHT22;5262;59.958;17.726;2023-04-09T01:22:56;-1.70;99.90
10431;DHT22;5262;59.958;17.726;2023-04-09T01:28:13;-1.80;99.90
10431;DHT22;5262;59.958;17.726;2023-04-09T01:30:47;-1.90;99.90
10431;DHT22;5262;59.958;17.726;2023-04-09T01:33:14;-1.90;99.90
10431;DHT22;5262;59.958;17.726;2023-04-09T01:35:45;-1.90;99.90
10431;DHT22;5262;59.958;17.726;2023-04-09T01:38:13;-1.90;99.90
10431;DHT22;5262;59.958;17.726;2023-04-09T01:40:39;-1.90;99.90
10431;DHT22;5262;59.958;17.726;2023-04-09T01:43:06;-1.90;99.90
10431;DHT22;5262;59.958;17.726;2023-04-09T01:45:33;-1.90;99.90
10431;DHT22;5262;59.958;17.726;2023-04-09T01:47:59;-1.90;99.90
10431;DHT22;5262;59.958;17.726;2023-04-09T01:50:25;-2.00;99.90
10431;DHT22;5262;59.958;17.726;2023-04-09T01:52:51;-2.00;99.90
10431;DHT22;5262;59.958;17.726;2023-04-09T01:55:17;-1.90;99.90
10431;DHT22;5262;59.958;17.726;2023-04-09T01:57:42;-2.00;99.90
10431;DHT22;5262;59.958;17.726;2023-04-09T02:00:09;-2.00;99.90
10431;DHT22;5262;59.958;17.726;2023-04-09T02:02:56;-2.00;99.90
10431;DHT22;5262;59.958;17.726;2023-04-09T02:05:24;-2.00;99.90
10431;DHT22;5262;59.958;17.726;2023-04-09T02:07:55;-2.00;99.90
10431;DHT22;5262;59.958;17.726;2023-04-09T02:10:26;-2.00;99.90
10431;DHT22;5262;59.958;17.726;2023-04-09T02:12:56;-2.00;99.90
10431;DHT22;5262;59.958;17.726;2023-04-09T02:15:23;-2.00;99.90
10431;DHT22;5262;59.958;17.726;2023-04-09T02:17:50;-2.00;99.90
10431;DHT22;5262;59.958;17.726;2023-04-09T02:20:19;-2.00;99.90
10431;DHT22;5262;59.958;17.726;2023-04-09T02:22:45;-2.00;99.90
10431;DHT22;5262;59.958;17.726;2023-04-09T02:25:11;-2.00;99.90
10431;DHT22;5262;59.958;17.726;2023-04-09T02:27:36;-1.90;99.90
10431;DHT22;5262;59.958;17.726;2023-04-09T02:30:02;-1.90;99.90
10431;DHT22;5262;59.958;17.726;2023-04-09T02:32:28;-1.90;99.90
10431;DHT22;5262;59.958;17.726;2023-04-09T02:34:54;-1.80;99.90
10431;DHT22;5262;59.958;17.726;2023-04-09T02:37:19;-1.80;99.90
10431;DHT22;5262;59.958;17.726;2023-04-09T02:39:45;-1.80;99.90
10431;DHT22;5262;59.958;17.726;2023-04-09T02:42:11;-1.70;99.90
10431;DHT22;5262;59.958;17.726;2023-04-09T02:44:36;-1.70;99.90
10431;DHT22;5262;59.958;17.726;2023-04-09T02:47:03;-1.70;99.90
10431;DHT22;5262;59.958;17.726;2023-04-09T02:49:28;-1.70;99.90
10431;DHT22;5262;59.958;17.726;2023-04-09T02:51:54;-1.60;99.90
10431;DHT22;5262;59.958;17.726;2023-04-09T02:54:20;-1.60;99.90
10431;DHT22;5262;59.958;17.726;2023-04-09T02:56:45;-1.60;99.90
10431;DHT22;5262;59.958;17.726;2023-04-09T02:59:11;-1.60;99.90
10431;DHT22;5262;59.958;17.726;2023-04-09T03:01:36;-1.60;99.90
10431;DHT22;5262;59.958;17.726;2023-04-09T03:04:02;-1.60;99.90
10431;DHT22;5262;59.958;17.726;2023-04-09T03:06:28;-1.60;99.90
10431;DHT22;5262;59.958;17.726;2023-04-09T03:08:53;-1.60;99.90
10431;DHT22;5262;59.958;17.726;2023-04-09T03:11:19;-1.60;99.90
10431;DHT22;5262;59.958;17.726;2023-04-09T03:13:45;-1.60;99.90
10431;DHT22;5262;59.958;17.726;2023-04-09T03:16:10;-1.60;99.90
10431;DHT22;5262;59.958;17.726;2023-04-09T03:18:36;-1.60;99.90
10431;DHT22;5262;59.958;17.726;2023-04-09T03:21:05;-1.70;99.90
10431;DHT22;5262;59.958;17.726;2023-04-09T03:23:34;-1.70;99.90
10431;DHT22;5262;59.958;17.726;2023-04-09T03:26:01;-1.70;99.90
10431;DHT22;5262;59.958;17.726;2023-04-09T03:28:27;-1.60;99.90
10431;DHT22;5262;59.958;17.726;2023-04-09T03:30:52;-1.70;99.90
10431;DHT22;5262;59.958;17.726;2023-04-09T03:33:18;-1.70;99.90
10431;DHT22;5262;59.958;17.726;2023-04-09T03:35:44;-1.70;99.90
10431;DHT22;5262;59.958;17.726;2023-04-09T03:38:09;-1.70;99.90
10431;DHT22;5262;59.958;17.726;2023-04-09T03:40:35;-1.70;99.90
10431;DHT22;5262;59.958;17.726;2023-04-09T03:43:01;-1.70;99.90
10431;DHT22;5262;59.958;17.726;2023-04-09T03:45:28;-1.70;99.90
10431;DHT22;5262;59.958;17.726;2023-04-09T03:47:54;-1.70;99.90
10431;DHT22;5262;59.958;17.726;2023-04-09T03:50:19;-1.80;99.90
10431;DHT22;5262;59.958;17.726;2023-04-09T03:52:46;-1.70;99.90
10431;DHT22;5262;59.958;17.726;2023-04-09T03:55:11;-1.80;99.90
10431;DHT22;5262;59.958;17.726;2023-04-09T03:57:37;-1.80;99.90
10431;DHT22;5262;59.958;17.726;2023-04-09T04:00:03;-1.80;99.90
10431;DHT22;5262;59.958;17.726;2023-04-09T04:02:29;-1.80;99.90
10431;DHT22;5262;59.958;17.726;2023-04-09T04:04:58;-1.70;99.90
10431;DHT22;5262;59.958;17.726;2023-04-09T04:07:24;-1.70;99.90
10431;DHT22;5262;59.958;17.726;2023-04-09T04:09:50;-1.80;99.90
10431;DHT22;5262;59.958;17.726;2023-04-09T04:12:16;-1.80;99.90
10431;DHT22;5262;59.958;17.726;2023-04-09T04:14:41;-1.80;99.90
10431;DHT22;5262;59.958;17.726;2023-04-09T04:17:07;-1.90;99.90
10431;DHT22;5262;59.958;17.726;2023-04-09T04:19:33;-1.90;99.90
10431;DHT22;5262;59.958;17.726;2023-04-09T04:21:58;-1.90;99.90
10431;DHT22;5262;59.958;17.726;2023-04-09T04:24:24;-2.00;99.90
10431;DHT22;5262;59.958;17.726;2023-04-09T04:26:50;-2.00;99.90
10431;DHT22;5262;59.958;17.726;2023-04-09T04:29:15;-2.10;99.90
10431;DHT22;5262;59.958;17.726;2023-04-09T04:31:41;-2.10;99.90
10431;DHT22;5262;59.958;17.726;2023-04-09T04:34:07;-2.10;99.90
10431;DHT22;5262;59.958;17.726;2023-04-09T04:36:32;-2.20;99.90
10431;DHT22;5262;59.958;17.726;2023-04-09T04:38:58;-2.20;99.90
10431;DHT22;5262;59.958;17.726;2023-04-09T04:41:23;-2.20;99.90
10431;DHT22;5262;59.958;17.726;2023-04-09T04:43:49;-2.20;99.90
10431;DHT22;5262;59.958;17.726;2023-04-09T04:46:15;-2.20;99.90
10431;DHT22;5262;59.958;17.726;2023-04-09T04:48:40;-2.20;99.90
10431;DHT22;5262;59.958;17.726;2023-04-09T04:51:06;-2.20;99.90
10431;DHT22;5262;59.958;17.726;2023-04-09T04:53:32;-2.20;99.90
10431;DHT22;5262;59.958;17.726;2023-04-09T04:55:57;-2.20;99.90
10431;DHT22;5262;59.958;17.726;2023-04-09T04:58:24;-2.20;99.90
10431;DHT22;5262;59.958;17.726;2023-04-09T05:00:50;-2.20;99.90
10431;DHT22;5262;59.958;17.726;2023-04-09T05:03:15;-2.10;99.90
10431;DHT22;5262;59.958;17.726;2023-04-09T05:05:41;-2.10;99.90
10431;DHT22;5262;59.958;17.726;2023-04-09T05:08:06;-2.00;99.90
10431;DHT22;5262;59.958;17.726;2023-04-09T05:10:32;-2.00;99.90
10431;DHT22;5262;59.958;17.726;2023-04-09T05:12:58;-1.90;99.90
10431;DHT22;5262;59.958;17.726;2023-04-09T05:15:23;-1.80;99.90
10431;DHT22;5262;59.958;17.726;2023-04-09T05:17:49;-1.70;99.90
10431;DHT22;5262;59.958;17.726;2023-04-09T05:20:15;-1.60;99.90
10431;DHT22;5262;59.958;17.726;2023-04-09T05:22:41;-1.50;99.90
10431;DHT22;5262;59.958;17.726;2023-04-09T05:25:07;-1.40;99.90
10431;DHT22;5262;59.958;17.726;2023-04-09T05:27:32;-1.30;99.90
10431;DHT22;5262;59.958;17.726;2023-04-09T05:29:58;-1.20;99.90
10431;DHT22;5262;59.958;17.726;2023-04-09T05:32:23;-1.00;99.90
10431;DHT22;5262;59.958;17.726;2023-04-09T05:34:49;-0.90;99.90
10431;DHT22;5262;59.958;17.726;2023-04-09T05:37:15;-0.90;99.90
10431;DHT22;5262;59.958;17.726;2023-04-09T05:39:41;-0.80;99.90
10431;DHT22;5262;59.958;17.726;2023-04-09T05:42:06;-0.70;99.90
10431;DHT22;5262;59.958;17.726;2023-04-09T05:44:32;-0.60;99.90
10431;DHT22;5262;59.958;17.726;2023-04-09T05:46:57;-0.50;99.90
10431;DHT22;5262;59.958;17.726;2023-04-09T05:49:24;-0.40;99.90
10431;DHT22;5262;59.958;17.726;2023-04-09T05:51:50;-0.40;99.90
10431;DHT22;5262;59.958;17.726;2023-04-09T05:54:16;-0.30;99.90
10431;DHT22;5262;59.958;17.726;2023-04-09T05:56:42;-0.10;99.90
10431;DHT22;5262;59.958;17.726;2023-04-09T05:59:07;0.00;99.90
10431;DHT22;5262;59.958;17.726;2023-04-09T06:01:33;0.10;99.90
10431;DHT22;5262;59.958;17.726;2023-04-09T06:03:59;0.20;99.90
10431;DHT22;5262;59.958;17.726;2023-04-09T06:06:24;0.30;99.90
10431;DHT22;5262;59.958;17.726;2023-04-09T06:08:50;0.40;99.90
10431;DHT22;5262;59.958;17.726;2023-04-09T06:11:16;0.70;99.90
10431;DHT22;5262;59.958;17.726;2023-04-09T06:13:41;0.80;99.90
10431;DHT22;5262;59.958;17.726;2023-04-09T06:16:08;1.10;99.90
10431;DHT22;5262;59.958;17.726;2023-04-09T06:18:35;1.30;99.90
10431;DHT22;5262;59.958;17.726;2023-04-09T06:21:02;1.70;99.90
10431;DHT22;5262;59.958;17.726;2023-04-09T06:23:28;1.80;99.90
10431;DHT22;5262;59.958;17.726;2023-04-09T06:25:54;2.10;99.90
10431;DHT22;5262;59.958;17.726;2023-04-09T06:28:20;2.50;99.90
10431;DHT22;5262;59.958;17.726;2023-04-09T06:30:46;2.70;99.90
10431;DHT22;5262;59.958;17.726;2023-04-09T06:33:14;3.10;99.90
10431;DHT22;5262;59.958;17.726;2023-04-09T06:35:40;3.50;99.90
10431;DHT22;5262;59.958;17.726;2023-04-09T06:38:07;4.00;99.90
10431;DHT22;5262;59.958;17.726;2023-04-09T06:40:38;4.20;99.90
10431;DHT22;5262;59.958;17.726;2023-04-09T06:43:04;4.40;99.90
10431;DHT22;5262;59.958;17.726;2023-04-09T06:45:31;4.50;99.90
10431;DHT22;5262;59.958;17.726;2023-04-09T06:47:58;5.20;99.90
10431;DHT22;5262;59.958;17.726;2023-04-09T06:50:24;5.40;99.90
10431;DHT22;5262;59.958;17.726;2023-04-09T06:52:50;5.90;99.60
10431;DHT22;5262;59.958;17.726;2023-04-09T06:55:17;6.70;98.40
10431;DHT22;5262;59.958;17.726;2023-04-09T06:57:42;7.10;97.70
10431;DHT22;5262;59.958;17.726;2023-04-09T07:00:09;7.80;96.90
10431;DHT22;5262;59.958;17.726;2023-04-09T07:02:35;8.20;95.50
10431;DHT22;5262;59.958;17.726;2023-04-09T07:05:02;8.80;94.40
10431;DHT22;5262;59.958;17.726;2023-04-09T07:07:28;9.80;92.50
10431;DHT22;5262;59.958;17.726;2023-04-09T07:09:53;10.20;91.10
10431;DHT22;5262;59.958;17.726;2023-04-09T07:12:30;10.70;88.70
10431;DHT22;5262;59.958;17.726;2023-04-09T07:15:04;10.70;85.00
10431;DHT22;5262;59.958;17.726;2023-04-09T07:17:30;11.40;83.10
10431;DHT22;5262;59.958;17.726;2023-04-09T07:19:56;11.80;80.30
10431;DHT22;5262;59.958;17.726;2023-04-09T07:22:24;11.70;77.90
10431;DHT22;5262;59.958;17.726;2023-04-09T07:24:51;11.90;76.40
10431;DHT22;5262;59.958;17.726;2023-04-09T07:27:25;12.80;74.40
10431;DHT22;5262;59.958;17.726;2023-04-09T07:29:56;13.20;71.90
10431;DHT22;5262;59.958;17.726;2023-04-09T07:32:23;14.40;68.80
10431;DHT22;5262;59.958;17.726;2023-04-09T07:34:50;14.70;64.70
10431;DHT22;5262;59.958;17.726;2023-04-09T07:37:17;14.40;61.80
10431;DHT22;5262;59.958;17.726;2023-04-09T07:39:43;13.60;63.60
10431;DHT22;5262;59.958;17.726;2023-04-09T07:42:08;14.20;62.90
10431;DHT22;5262;59.958;17.726;2023-04-09T07:44:35;13.90;63.80
10431;DHT22;5262;59.958;17.726;2023-04-09T07:47:05;12.80;61.80
10431;DHT22;5262;59.958;17.726;2023-04-09T07:49:31;13.40;62.70
10431;DHT22;5262;59.958;17.726;2023-04-09T07:51:58;13.50;64.20
10431;DHT22;5262;59.958;17.726;2023-04-09T07:54:24;13.80;61.30
10431;DHT22;5262;59.958;17.726;2023-04-09T07:56:50;12.70;62.80
10431;DHT22;5262;59.958;17.726;2023-04-09T07:59:16;11.40;64.70
10431;DHT22;5262;59.958;17.726;2023-04-09T08:01:42;11.40;67.40
10431;DHT22;5262;59.958;17.726;2023-04-09T08:04:09;11.20;66.80
10431;DHT22;5262;59.958;17.726;2023-04-09T08:06:35;11.50;66.80
10431;DHT22;5262;59.958;17.726;2023-04-09T08:09:01;12.00;68.10
10431;DHT22;5262;59.958;17.726;2023-04-09T08:11:27;12.40;65.00
10431;DHT22;5262;59.958;17.726;2023-04-09T08:13:53;11.30;65.90
10431;DHT22;5262;59.958;17.726;2023-04-09T08:16:19;11.00;67.20
10431;DHT22;5262;59.958;17.726;2023-04-09T08:18:46;10.30;68.70
10431;DHT22;5262;59.958;17.726;2023-04-09T08:21:12;10.30;70.30
10431;DHT22;5262;59.958;17.726;2023-04-09T08:23:38;10.00;71.00
10431;DHT22;5262;59.958;17.726;2023-04-09T08:26:03;9.80;71.90
10431;DHT22;5262;59.958;17.726;2023-04-09T08:28:29;10.20;71.60
10431;DHT22;5262;59.958;17.726;2023-04-09T08:30:55;11.00;71.10
10431;DHT22;5262;59.958;17.726;2023-04-09T08:33:20;12.40;69.70
10431;DHT22;5262;59.958;17.726;2023-04-09T08:35:46;14.50;67.00
10431;DHT22;5262;59.958;17.726;2023-04-09T08:38:12;15.20;63.10
10431;DHT22;5262;59.958;17.726;2023-04-09T08:40:37;15.30;60.50
10431;DHT22;5262;59.958;17.726;2023-04-09T08:43:04;13.50;60.70
10431;DHT22;5262;59.958;17.726;2023-04-09T08:45:31;13.60;63.30
10431;DHT22;5262;59.958;17.726;2023-04-09T08:47:57;14.20;60.80
10431;DHT22;5262;59.958;17.726;2023-04-09T08:50:29;14.30;62.80
10431;DHT22;5262;59.958;17.726;2023-04-09T08:52:57;13.70;60.90
10431;DHT22;5262;59.958;17.726;2023-04-09T08:55:23;12.80;60.60
10431;DHT22;5262;59.958;17.726;2023-04-09T08:57:49;13.50;63.20
10431;DHT22;5262;59.958;17.726;2023-04-09T09:00:14;12.70;63.20
10431;DHT22;5262;59.958;17.726;2023-04-09T09:03:06;12.70;63.80
10431;DHT22;5262;59.958;17.726;2023-04-09T09:05:40;12.90;63.30
10431;DHT22;5262;59.958;17.726;2023-04-09T09:08:13;12.60;63.70
10431;DHT22;5262;59.958;17.726;2023-04-09T09:10:47;12.50;64.80
10431;DHT22;5262;59.958;17.726;2023-04-09T09:13:20;12.00;64.90
10431;DHT22;5262;59.958;17.726;2023-04-09T09:15:47;10.90;67.70
10431;DHT22;5262;59.958;17.726;2023-04-09T09:18:17;11.00;67.70
10431;DHT22;5262;59.958;17.726;2023-04-09T09:20:44;11.90;67.80
10431;DHT22;5262;59.958;17.726;2023-04-09T09:23:09;12.30;66.90
10431;DHT22;5262;59.958;17.726;2023-04-09T09:25:39;11.80;66.60
10431;DHT22;5262;59.958;17.726;2023-04-09T09:28:10;11.60;67.20
10431;DHT22;5262;59.958;17.726;2023-04-09T09:30:38;10.20;67.00
10431;DHT22;5262;59.958;17.726;2023-04-09T09:33:11;10.50;70.10
10431;DHT22;5262;59.958;17.726;2023-04-09T09:35:47;10.40;69.40
10431;DHT22;5262;59.958;17.726;2023-04-09T09:38:13;10.70;69.30
10431;DHT22;5262;59.958;17.726;2023-04-09T09:40:40;11.00;69.20
10431;DHT22;5262;59.958;17.726;2023-04-09T09:43:06;10.60;69.50
10431;DHT22;5262;59.958;17.726;2023-04-09T09:45:32;11.10;68.90
10431;DHT22;5262;59.958;17.726;2023-04-09T09:47:57;12.10;68.50
10431;DHT22;5262;59.958;17.726;2023-04-09T09:50:24;12.10;66.90
10431;DHT22;5262;59.958;17.726;2023-04-09T09:52:52;11.90;66.60
10431;DHT22;5262;59.958;17.726;2023-04-09T09:55:20;11.90;66.40
10431;DHT22;5262;59.958;17.726;2023-04-09T09:57:48;12.20;66.60
10431;DHT22;5262;59.958;17.726;2023-04-09T10:00:15;11.60;67.30
10431;DHT22;5262;59.958;17.726;2023-04-09T10:02:55;11.90;67.90
10431;DHT22;5262;59.958;17.726;2023-04-09T10:05:22;12.20;65.90
10431;DHT22;5262;59.958;17.726;2023-04-09T10:07:57;12.40;67.00
10431;DHT22;5262;59.958;17.726;2023-04-09T10:10:25;11.90;65.60
10431;DHT22;5262;59.958;17.726;2023-04-09T10:12:51;12.20;65.80
10431;DHT22;5262;59.958;17.726;2023-04-09T10:15:20;12.40;65.70
10431;DHT22;5262;59.958;17.726;2023-04-09T10:17:46;12.60;65.20
10431;DHT22;5262;59.958;17.726;2023-04-09T10:20:23;13.40;64.00
10431;DHT22;5262;59.958;17.726;2023-04-09T10:22:51;13.50;62.70
10431;DHT22;5262;59.958;17.726;2023-04-09T10:25:18;14.70;61.80
10431;DHT22;5262;59.958;17.726;2023-04-09T10:27:45;16.40;60.40
10431;DHT22;5262;59.958;17.726;2023-04-09T10:30:42;17.00;56.40
10431;DHT22;5262;59.958;17.726;2023-04-09T10:33:18;17.00;56.20
10431;DHT22;5262;59.958;17.726;2023-04-09T10:35:46;16.60;56.90
10431;DHT22;5262;59.958;17.726;2023-04-09T10:38:15;17.60;54.50
10431;DHT22;5262;59.958;17.726;2023-04-09T10:40:48;16.50;55.10
10431;DHT22;5262;59.958;17.726;2023-04-09T10:43:17;17.50;55.30
10431;DHT22;5262;59.958;17.726;2023-04-09T10:45:44;17.90;54.20
10431;DHT22;5262;59.958;17.726;2023-04-09T10:48:12;18.00;53.30
10431;DHT22;5262;59.958;17.726;2023-04-09T10:50:42;17.00;52.30
10431;DHT22;5262;59.958;17.726;2023-04-09T10:53:21;18.00;53.50
10431;DHT22;5262;59.958;17.726;2023-04-09T10:55:49;17.20;51.90
10431;DHT22;5262;59.958;17.726;2023-04-09T10:58:15;17.60;52.90
10431;DHT22;5262;59.958;17.726;2023-04-09T11:00:43;17.50;53.00
10431;DHT22;5262;59.958;17.726;2023-04-09T11:03:27;18.10;52.60
10431;DHT22;5262;59.958;17.726;2023-04-09T11:06:07;18.10;51.90
10431;DHT22;5262;59.958;17.726;2023-04-09T11:08:37;18.60;51.20
10431;DHT22;5262;59.958;17.726;2023-04-09T11:11:03;17.00;50.60
10431;DHT22;5262;59.958;17.726;2023-04-09T11:13:30;16.70;54.60
10431;DHT22;5262;59.958;17.726;2023-04-09T11:15:57;17.20;52.90
10431;DHT22;5262;59.958;17.726;2023-04-09T11:18:24;18.60;53.70
10431;DHT22;5262;59.958;17.726;2023-04-09T11:20:58;18.60;50.70
10431;DHT22;5262;59.958;17.726;2023-04-09T11:23:24;17.40;49.60
10431;DHT22;5262;59.958;17.726;2023-04-09T11:25:51;18.40;50.80
10431;DHT22;5262;59.958;17.726;2023-04-09T11:28:18;18.70;50.10
10431;DHT22;5262;59.958;17.726;2023-04-09T11:30:44;18.00;50.80
10431;DHT22;5262;59.958;17.726;2023-04-09T11:33:11;17.70;52.70
10431;DHT22;5262;59.958;17.726;2023-04-09T11:35:37;17.10;52.10
10431;DHT22;5262;59.958;17.726;2023-04-09T11:38:10;17.40;50.10
10431;DHT22;5262;59.958;17.726;2023-04-09T11:40:37;16.00;50.00
10431;DHT22;5262;59.958;17.726;2023-04-09T11:43:09;15.80;53.10
10431;DHT22;5262;59.958;17.726;2023-04-09T11:45:38;16.10;52.10
10431;DHT22;5262;59.958;17.726;2023-04-09T11:48:04;16.40;52.60
10431;DHT22;5262;59.958;17.726;2023-04-09T11:50:31;16.30;53.60
10431;DHT22;5262;59.958;17.726;2023-04-09T11:52:57;16.80;52.30
10431;DHT22;5262;59.958;17.726;2023-04-09T11:55:28;17.10;51.60
10431;DHT22;5262;59.958;17.726;2023-04-09T11:57:59;17.30;51.60
10431;DHT22;5262;59.958;17.726;2023-04-09T12:00:26;17.10;51.60
10431;DHT22;5262;59.958;17.726;2023-04-09T12:03:02;17.90;51.50
10431;DHT22;5262;59.958;17.726;2023-04-09T12:05:31;17.30;52.20
10431;DHT22;5262;59.958;17.726;2023-04-09T12:08:01;18.40;50.60
10431;DHT22;5262;59.958;17.726;2023-04-09T12:10:34;17.00;50.50
10431;DHT22;5262;59.958;17.726;2023-04-09T12:13:06;18.10;49.60
10431;DHT22;5262;59.958;17.726;2023-04-09T12:15:33;17.80;49.80
10431;DHT22;5262;59.958;17.726;2023-04-09T12:17:59;16.60;48.30
10431;DHT22;5262;59.958;17.726;2023-04-09T12:20:46;16.60;50.60
10431;DHT22;5262;59.958;17.726;2023-04-09T12:23:12;16.70;50.00
10431;DHT22;5262;59.958;17.726;2023-04-09T12:25:42;15.50;51.00
10431;DHT22;5262;59.958;17.726;2023-04-09T12:28:11;15.80;51.70
10431;DHT22;5262;59.958;17.726;2023-04-09T12:30:38;16.10;51.60
10431;DHT22;5262;59.958;17.726;2023-04-09T12:33:04;16.10;50.10
10431;DHT22;5262;59.958;17.726;2023-04-09T12:35:29;14.70;50.60
10431;DHT22;5262;59.958;17.726;2023-04-09T12:37:55;15.10;52.00
10431;DHT22;5262;59.958;17.726;2023-04-09T12:40:21;15.10;50.10
10431;DHT22;5262;59.958;17.726;2023-04-09T12:42:47;14.80;51.30
10431;DHT22;5262;59.958;17.726;2023-04-09T12:45:15;14.80;50.40
10431;DHT22;5262;59.958;17.726;2023-04-09T12:47:41;14.00;49.30
10431;DHT22;5262;59.958;17.726;2023-04-09T12:50:08;14.20;50.70
10431;DHT22;5262;59.958;17.726;2023-04-09T12:52:34;14.50;51.80
10431;DHT22;5262;59.958;17.726;2023-04-09T12:55:00;14.30;51.10
10431;DHT22;5262;59.958;17.726;2023-04-09T12:57:26;14.20;51.80
10431;DHT22;5262;59.958;17.726;2023-04-09T12:59:52;14.30;49.30
10431;DHT22;5262;59.958;17.726;2023-04-09T13:02:19;13.70;48.80
10431;DHT22;5262;59.958;17.726;2023-04-09T13:04:46;14.40;51.80
10431;DHT22;5262;59.958;17.726;2023-04-09T13:07:11;14.60;49.70
10431;DHT22;5262;59.958;17.726;2023-04-09T13:09:43;13.60;47.30
10431;DHT22;5262;59.958;17.726;2023-04-09T13:12:09;14.20;51.80
10431;DHT22;5262;59.958;17.726;2023-04-09T13:14:38;14.40;49.90
10431;DHT22;5262;59.958;17.726;2023-04-09T13:17:04;14.80;48.10
10431;DHT22;5262;59.958;17.726;2023-04-09T13:19:30;15.30;50.20
10431;DHT22;5262;59.958;17.726;2023-04-09T13:21:56;15.50;49.20
10431;DHT22;5262;59.958;17.726;2023-04-09T13:24:22;15.20;48.00
10431;DHT22;5262;59.958;17.726;2023-04-09T13:26:48;15.20;47.30
10431;DHT22;5262;59.958;17.726;2023-04-09T13:29:13;14.80;47.90
10431;DHT22;5262;59.958;17.726;2023-04-09T13:31:39;14.30;48.90
10431;DHT22;5262;59.958;17.726;2023-04-09T13:34:05;13.70;49.70
10431;DHT22;5262;59.958;17.726;2023-04-09T13:36:31;13.90;50.40
10431;DHT22;5262;59.958;17.726;2023-04-09T13:38:57;13.50;49.30
10431;DHT22;5262;59.958;17.726;2023-04-09T13:41:30;13.00;49.40
10431;DHT22;5262;59.958;17.726;2023-04-09T13:43:55;12.60;50.80
10431;DHT22;5262;59.958;17.726;2023-04-09T13:46:21;12.60;51.50
10431;DHT22;5262;59.958;17.726;2023-04-09T13:48:46;12.50;53.10
10431;DHT22;5262;59.958;17.726;2023-04-09T13:51:12;12.20;51.90
10431;DHT22;5262;59.958;17.726;2023-04-09T13:53:38;12.10;52.20
10431;DHT22;5262;59.958;17.726;2023-04-09T13:56:04;12.30;54.00
10431;DHT22;5262;59.958;17.726;2023-04-09T13:58:29;12.30;54.40
10431;DHT22;5262;59.958;17.726;2023-04-09T14:00:55;12.40;52.10
10431;DHT22;5262;59.958;17.726;2023-04-09T14:03:21;12.60;52.70
10431;DHT22;5262;59.958;17.726;2023-04-09T14:05:47;12.90;54.00
10431;DHT22;5262;59.958;17.726;2023-04-09T14:08:14;13.00;54.10
10431;DHT22;5262;59.958;17.726;2023-04-09T14:10:40;12.90;51.70
10431;DHT22;5262;59.958;17.726;2023-04-09T14:13:06;13.10;53.30
10431;DHT22;5262;59.958;17.726;2023-04-09T14:15:34;12.90;55.60
10431;DHT22;5262;59.958;17.726;2023-04-09T14:18:01;12.70;57.80
10431;DHT22;5262;59.958;17.726;2023-04-09T14:20:27;12.90;58.60
10431;DHT22;5262;59.958;17.726;2023-04-09T14:22:52;12.60;58.70
10431;DHT22;5262;59.958;17.726;2023-04-09T14:25:18;12.60;59.20
10431;DHT22;5262;59.958;17.726;2023-04-09T14:27:44;12.40;58.80
10431;DHT22;5262;59.958;17.726;2023-04-09T14:30:10;12.20;59.70
10431;DHT22;5262;59.958;17.726;2023-04-09T14:32:36;12.40;58.40
10431;DHT22;5262;59.958;17.726;2023-04-09T14:35:02;12.20;59.50
10431;DHT22;5262;59.958;17.726;2023-04-09T14:37:27;11.60;59.60
10431;DHT22;5262;59.958;17.726;2023-04-09T14:39:53;11.20;60.50
10431;DHT22;5262;59.958;17.726;2023-04-09T14:42:19;10.90;61.60
10431;DHT22;5262;59.958;17.726;2023-04-09T14:44:45;10.80;62.10
10431;DHT22;5262;59.958;17.726;2023-04-09T14:47:11;10.40;62.90
10431;DHT22;5262;59.958;17.726;2023-04-09T14:49:36;10.40;63.20
10431;DHT22;5262;59.958;17.726;2023-04-09T14:52:02;10.40;63.80
10431;DHT22;5262;59.958;17.726;2023-04-09T14:54:27;10.40;63.80
10431;DHT22;5262;59.958;17.726;2023-04-09T14:56:55;10.30;63.70
10431;DHT22;5262;59.958;17.726;2023-04-09T14:59:23;10.30;63.90
10431;DHT22;5262;59.958;17.726;2023-04-09T15:01:48;10.10;64.80
10431;DHT22;5262;59.958;17.726;2023-04-09T15:04:14;10.00;63.90
10431;DHT22;5262;59.958;17.726;2023-04-09T15:06:40;9.70;64.80
10431;DHT22;5262;59.958;17.726;2023-04-09T15:09:05;9.90;66.20
10431;DHT22;5262;59.958;17.726;2023-04-09T15:11:31;9.70;64.30
10431;DHT22;5262;59.958;17.726;2023-04-09T15:13:56;9.60;63.80
10431;DHT22;5262;59.958;17.726;2023-04-09T15:16:23;9.50;64.70
10431;DHT22;5262;59.958;17.726;2023-04-09T15:18:50;9.50;65.00
10431;DHT22;5262;59.958;17.726;2023-04-09T15:21:17;9.80;65.70
10431;DHT22;5262;59.958;17.726;2023-04-09T15:23:43;9.90;64.80
10431;DHT22;5262;59.958;17.726;2023-04-09T15:26:08;9.90;63.90
10431;DHT22;5262;59.958;17.726;2023-04-09T15:28:34;9.80;64.30
10431;DHT22;5262;59.958;17.726;2023-04-09T15:30:59;9.60;64.10
10431;DHT22;5262;59.958;17.726;2023-04-09T15:33:25;9.50;64.50
10431;DHT22;5262;59.958;17.726;2023-04-09T15:35:52;9.70;64.50
10431;DHT22;5262;59.958;17.726;2023-04-09T15:38:18;9.70;64.70